createdAt,value
2022-10-23T00:01:24.597Z,15.40
2022-10-23T00:04:15.481Z,10.52
2022-10-23T00:07:03.779Z,7.97
2022-10-23T00:09:52.893Z,15.38
2022-10-23T00:12:42.930Z,8.52
2022-10-23T00:15:31.555Z,7.85
2022-10-23T00:18:19.836Z,8.05
2022-10-23T00:21:09.927Z,10.07
2022-10-23T00:23:58.341Z,11.47
2022-10-23T00:26:46.668Z,9.27
2022-10-23T00:29:36.300Z,12.32
2022-10-23T00:32:24.828Z,11.50
2022-10-23T00:35:13.163Z,14.70
2022-10-23T00:42:18.559Z,14.57
2022-10-23T00:45:19.447Z,11.90
2022-10-23T00:48:07.744Z,16.70
2022-10-23T00:50:56.493Z,18.63
2022-10-23T00:53:47.995Z,10.20
2022-10-23T00:56:41.388Z,8.73
2022-10-23T00:59:30.557Z,8.35
2022-10-23T01:02:20.381Z,10.40
2022-10-23T01:05:09.254Z,12.55
2022-10-23T01:08:03.351Z,10.40
2022-10-23T01:10:57.995Z,13.02
2022-10-23T01:13:57.718Z,10.07
2022-10-23T01:16:52.573Z,11.45
2022-10-23T01:19:57.042Z,11.43
2022-10-23T01:23:07.265Z,9.85
2022-10-23T01:26:16.271Z,12.17
2022-10-23T01:29:12.813Z,16.73
2022-10-23T01:32:07.600Z,8.02
2022-10-23T01:35:03.429Z,11.02
2022-10-23T01:37:56.132Z,9.77
2022-10-23T01:40:49.639Z,10.63
2022-10-23T01:43:42.985Z,10.63
2022-10-23T01:46:35.424Z,13.30
2022-10-23T01:49:24.901Z,9.20
2022-10-23T01:52:15.321Z,8.18
2022-10-23T01:55:03.696Z,8.98
2022-10-23T01:57:53.829Z,9.23
2022-10-23T02:00:45.424Z,9.50
2022-10-23T02:03:37.487Z,8.95
2022-10-23T02:06:25.874Z,10.13
2022-10-23T02:09:14.297Z,19.52
2022-10-23T02:12:08.540Z,7.88
2022-10-23T02:15:01.856Z,7.68
2022-10-23T02:17:56.464Z,8.90
2022-10-23T02:20:53.661Z,5.47
2022-10-23T02:23:52.580Z,8.85
2022-10-23T02:26:49.314Z,6.82
2022-10-23T02:29:42.468Z,9.05
2022-10-23T02:32:31.058Z,8.35
2022-10-23T02:35:21.961Z,8.35
2022-10-23T02:38:30.618Z,8.88
2022-10-23T02:41:41.814Z,10.65
2022-10-23T02:48:40.117Z,8.38
2022-10-23T02:51:37.086Z,10.98
2022-10-23T02:54:43.382Z,12.07
2022-10-23T02:57:40.137Z,7.57
2022-10-23T03:00:47.223Z,11.38
2022-10-23T03:03:40.600Z,9.13
2022-10-23T03:06:28.917Z,9.75
2022-10-23T03:09:17.279Z,13.20
2022-10-23T03:12:07.507Z,11.70
2022-10-23T03:14:55.789Z,10.00
2022-10-23T03:17:49.694Z,11.73
2022-10-23T03:20:37.989Z,13.43
2022-10-23T03:23:26.279Z,12.18
2022-10-23T03:26:14.580Z,11.52
2022-10-23T03:29:04.247Z,12.75
2022-10-23T03:31:52.534Z,9.82
2022-10-23T03:34:40.836Z,9.98
2022-10-23T03:37:29.196Z,14.65
2022-10-23T03:40:17.599Z,10.63
2022-10-23T03:43:05.924Z,12.73
2022-10-23T03:45:56.986Z,15.27
2022-10-23T03:51:33.676Z,34.97
2022-10-23T03:54:23.293Z,50.17
2022-10-23T03:57:11.555Z,22.17
2022-10-23T03:59:59.856Z,26.10
2022-10-23T04:02:49.734Z,17.92
2022-10-23T04:05:39.099Z,28.23
2022-10-23T04:08:27.736Z,37.03
2022-10-23T04:11:16.043Z,25.63
2022-10-23T04:14:04.418Z,23.98
2022-10-23T04:16:52.753Z,19.98
2022-10-23T04:19:42.457Z,20.05
2022-10-23T04:22:30.752Z,14.88
2022-10-23T04:25:19.038Z,13.65
2022-10-23T04:28:07.388Z,10.43
2022-10-23T04:30:55.715Z,12.45
2022-10-23T04:33:44.047Z,12.70
2022-10-23T04:36:33.736Z,12.60
2022-10-23T04:39:22.047Z,11.30
2022-10-23T04:42:10.425Z,16.08
2022-10-23T04:44:58.759Z,13.38
2022-10-23T04:47:47.109Z,13.20
2022-10-23T04:50:35.495Z,11.23
2022-10-23T04:53:25.360Z,14.00
2022-10-23T04:56:15.365Z,11.30
2022-10-23T05:01:57.098Z,10.15
2022-10-23T05:04:45.493Z,9.30
2022-10-23T05:07:34.357Z,12.82
2022-10-23T05:10:24.004Z,15.00
2022-10-23T05:13:12.342Z,10.75
2022-10-23T05:16:01.042Z,11.40
2022-10-23T05:18:49.931Z,9.60
2022-10-23T05:21:40.138Z,7.80
2022-10-23T05:24:28.553Z,12.73
2022-10-23T05:27:18.202Z,16.27
2022-10-23T05:30:07.602Z,10.82
2022-10-23T05:32:56.196Z,16.02
2022-10-23T05:35:46.025Z,15.00
2022-10-23T05:38:36.201Z,19.65
2022-10-23T05:41:24.625Z,25.27
2022-10-23T05:44:14.279Z,18.13
2022-10-23T05:47:02.598Z,18.08
2022-10-23T05:49:50.886Z,57.65
2022-10-23T05:52:39.198Z,56.45
2022-10-23T05:55:27.807Z,35.22
2022-10-23T05:58:16.127Z,32.00
2022-10-23T06:01:08.298Z,18.35
2022-10-23T06:03:56.789Z,18.58
2022-10-23T06:06:46.614Z,16.73
2022-10-23T06:09:35.083Z,17.00
2022-10-23T06:12:24.025Z,19.80
2022-10-23T06:15:12.571Z,20.45
2022-10-23T06:18:03.754Z,19.70
2022-10-23T06:20:52.084Z,27.38
2022-10-23T06:23:41.500Z,23.52
2022-10-23T06:26:29.810Z,20.38
2022-10-23T06:29:18.098Z,16.13
2022-10-23T06:32:06.707Z,20.38
2022-10-23T06:34:56.345Z,17.15
2022-10-23T06:37:44.624Z,15.73
2022-10-23T06:40:33.142Z,19.05
2022-10-23T06:43:21.510Z,17.10
2022-10-23T06:46:10.023Z,14.55
2022-10-23T06:48:58.293Z,14.13
2022-10-23T06:51:47.960Z,16.38
2022-10-23T06:54:36.318Z,15.82
2022-10-23T06:57:24.638Z,19.25
2022-10-23T07:00:14.463Z,18.20
2022-10-23T07:03:02.803Z,18.60
2022-10-23T07:05:51.130Z,17.20
2022-10-23T07:08:41.029Z,16.00
2022-10-23T07:11:29.331Z,13.10
2022-10-23T07:14:17.675Z,15.57
2022-10-23T07:17:05.989Z,12.85
2022-10-23T07:19:54.355Z,16.92
2022-10-23T07:22:42.841Z,16.25
2022-10-23T07:25:32.668Z,17.50
2022-10-23T07:28:21.016Z,18.05
2022-10-23T07:31:10.142Z,17.27
2022-10-23T07:33:58.909Z,14.23
2022-10-23T07:36:47.211Z,16.08
2022-10-23T07:39:35.579Z,13.18
2022-10-23T07:42:25.337Z,18.45
2022-10-23T07:45:13.694Z,17.63
2022-10-23T07:48:02.026Z,15.82
2022-10-23T07:50:50.579Z,14.23
2022-10-23T07:53:39.979Z,15.75
2022-10-23T07:56:30.072Z,16.65
2022-10-23T07:59:19.771Z,15.67
2022-10-23T08:02:12.213Z,17.50
2022-10-23T08:05:00.592Z,13.75
2022-10-23T08:07:48.907Z,16.65
2022-10-23T08:10:37.290Z,15.25
2022-10-23T08:13:26.107Z,14.75
2022-10-23T08:16:15.907Z,15.90
2022-10-23T08:19:05.057Z,18.50
2022-10-23T08:21:55.312Z,20.33
2022-10-23T08:24:43.996Z,11.85
2022-10-23T08:27:32.546Z,13.85
2022-10-23T08:30:21.063Z,15.95
2022-10-23T08:33:11.007Z,16.35
2022-10-23T08:35:59.435Z,13.25
2022-10-23T08:38:48.277Z,15.15
2022-10-23T08:41:39.041Z,12.43
2022-10-23T08:44:32.218Z,13.13
2022-10-23T08:47:27.515Z,11.80
2022-10-23T08:53:28.638Z,11.05
2022-10-23T08:56:24.788Z,10.68
2022-10-23T08:59:22.758Z,14.85
2022-10-23T09:02:18.225Z,14.00
2022-10-23T09:05:17.394Z,14.55
2022-10-23T09:08:33.116Z,11.45
2022-10-23T09:11:29.028Z,12.32
2022-10-23T09:14:42.088Z,10.73
2022-10-23T09:17:32.531Z,10.63
2022-10-23T09:20:24.705Z,8.15
2022-10-23T09:23:17.298Z,13.30
2022-10-23T09:26:13.771Z,10.57
2022-10-23T09:29:15.418Z,11.48
2022-10-23T09:32:06.383Z,9.18
2022-10-23T09:37:53.145Z,8.80
2022-10-23T09:40:43.992Z,13.77
2022-10-23T09:43:32.515Z,10.55
2022-10-23T09:46:21.054Z,14.85
2022-10-23T09:49:18.338Z,10.00
2022-10-23T09:52:24.494Z,12.52
2022-10-23T09:55:24.160Z,12.43
2022-10-23T09:58:22.100Z,13.02
2022-10-23T10:01:25.141Z,12.07
2022-10-23T10:04:13.795Z,13.77
2022-10-23T10:07:04.204Z,10.23
2022-10-23T10:09:54.391Z,9.27
2022-10-23T10:12:50.817Z,14.90
2022-10-23T10:15:48.843Z,10.75
2022-10-23T10:18:41.202Z,7.90
2022-10-23T10:21:34.117Z,8.45
2022-10-23T10:24:29.197Z,11.55
2022-10-23T10:27:31.639Z,8.63
2022-10-23T10:30:23.878Z,7.82
2022-10-23T10:33:19.019Z,8.60
2022-10-23T10:36:18.652Z,8.10
2022-10-23T10:39:16.440Z,7.85
2022-10-23T10:42:21.185Z,9.18
2022-10-23T10:45:34.441Z,10.48
2022-10-23T10:48:36.077Z,9.55
2022-10-23T10:51:31.673Z,10.18
2022-10-23T10:54:34.085Z,6.63
2022-10-23T10:57:32.112Z,7.20
2022-10-23T11:00:22.999Z,12.32
2022-10-23T11:06:13.287Z,9.75
2022-10-23T11:09:19.638Z,10.73
2022-10-23T11:12:15.421Z,7.90
2022-10-23T11:15:04.392Z,10.25
2022-10-23T11:17:56.925Z,7.70
2022-10-23T11:20:57.563Z,12.85
2022-10-23T11:24:07.090Z,9.55
2022-10-23T11:27:29.048Z,6.53
2022-10-23T11:30:26.718Z,7.93
2022-10-23T11:33:50.254Z,10.10
2022-10-23T11:36:46.888Z,8.13
2022-10-23T11:39:37.700Z,17.73
2022-10-23T11:45:35.042Z,8.25
2022-10-23T11:48:36.395Z,10.05
2022-10-23T11:51:29.362Z,4.50
2022-10-23T11:54:27.382Z,4.97
2022-10-23T11:57:18.268Z,6.00
2022-10-23T12:03:21.861Z,6.93
2022-10-23T12:09:10.193Z,6.68
2022-10-23T12:12:17.507Z,6.80
2022-10-23T12:15:24.773Z,7.70
2022-10-23T12:18:16.831Z,33.53
2022-10-23T12:21:05.658Z,10.15
2022-10-23T12:24:17.490Z,7.05
2022-10-23T12:27:17.910Z,6.10
2022-10-23T12:30:23.806Z,6.75
2022-10-23T12:33:25.855Z,4.15
2022-10-23T12:36:39.134Z,8.00
2022-10-23T12:39:29.380Z,5.10
2022-10-23T12:42:24.318Z,5.03
2022-10-23T12:45:19.743Z,8.18
2022-10-23T12:48:08.101Z,9.38
2022-10-23T12:50:57.630Z,7.00
2022-10-23T12:53:50.052Z,5.75
2022-10-23T12:56:39.487Z,14.85
2022-10-23T12:59:37.005Z,12.38
2022-10-23T13:02:27.300Z,5.95
2022-10-23T13:05:20.592Z,6.35
2022-10-23T13:08:12.207Z,4.90
2022-10-23T13:11:00.919Z,6.80
2022-10-23T13:13:50.011Z,5.57
2022-10-23T13:16:39.826Z,6.97
2022-10-23T13:19:28.582Z,5.22
2022-10-23T13:22:21.139Z,7.25
2022-10-23T13:25:23.848Z,7.45
2022-10-23T13:28:24.607Z,5.43
2022-10-23T13:31:29.536Z,3.88
2022-10-23T13:34:25.510Z,4.20
2022-10-23T13:37:26.034Z,4.93
2022-10-23T13:40:24.352Z,6.22
2022-10-23T13:43:16.114Z,6.07
2022-10-23T13:46:04.654Z,5.50
2022-10-23T13:48:53.553Z,4.43
2022-10-23T13:51:47.575Z,5.43
2022-10-23T13:54:35.917Z,3.78
2022-10-23T13:57:24.235Z,9.43
2022-10-23T14:00:13.531Z,6.28
2022-10-23T14:03:01.837Z,6.57
2022-10-23T14:05:50.182Z,9.55
2022-10-23T14:08:39.923Z,7.40
2022-10-23T14:11:28.354Z,4.90
2022-10-23T14:14:16.693Z,9.27
2022-10-23T14:17:05.056Z,4.28
2022-10-23T14:19:53.473Z,3.65
2022-10-23T14:22:42.085Z,5.32
2022-10-23T14:25:41.938Z,4.95
2022-10-23T14:28:35.151Z,5.72
2022-10-23T14:31:24.190Z,3.97
2022-10-23T14:34:13.512Z,3.28
2022-10-23T14:37:08.771Z,3.80
2022-10-23T14:39:57.988Z,4.85
2022-10-23T14:42:48.206Z,4.68
2022-10-23T14:45:37.513Z,2.28
2022-10-23T14:48:25.878Z,5.95
2022-10-23T14:51:20.107Z,4.22
2022-10-23T14:54:09.345Z,4.32
2022-10-23T14:56:57.689Z,4.25
2022-10-23T14:59:47.350Z,3.45
2022-10-23T15:02:35.884Z,6.78
2022-10-23T15:05:24.321Z,5.13
2022-10-23T15:08:12.674Z,2.65
2022-10-23T15:11:02.165Z,8.10
2022-10-23T15:13:50.604Z,4.95
2022-10-23T15:16:42.163Z,2.75
2022-10-23T15:19:30.836Z,4.78
2022-10-23T15:22:19.865Z,2.78
2022-10-23T15:25:11.250Z,3.20
2022-10-23T15:28:00.522Z,3.00
2022-10-23T15:30:49.215Z,5.25
2022-10-23T15:33:38.980Z,3.30
2022-10-23T15:36:27.578Z,6.68
2022-10-23T15:39:18.450Z,3.70
2022-10-23T15:44:55.195Z,5.25
2022-10-23T15:47:43.776Z,5.43
2022-10-23T15:50:33.581Z,3.72
2022-10-23T15:53:21.909Z,4.72
2022-10-23T15:56:10.334Z,5.18
2022-10-23T15:58:58.968Z,6.13
2022-10-23T16:01:47.372Z,3.20
2022-10-23T16:04:35.788Z,4.20
2022-10-23T16:07:25.485Z,3.88
2022-10-23T16:10:13.837Z,3.47
2022-10-23T16:13:02.239Z,7.70
2022-10-23T16:15:50.538Z,4.18
2022-10-23T16:18:39.412Z,4.15
2022-10-23T16:21:29.666Z,3.08
2022-10-23T16:24:19.323Z,3.72
2022-10-23T16:27:07.815Z,2.85
2022-10-23T16:29:56.160Z,8.02
2022-10-23T16:32:44.681Z,4.38
2022-10-23T16:35:33.010Z,4.78
2022-10-23T16:38:21.621Z,4.35
2022-10-23T16:41:11.728Z,6.10
2022-10-23T16:44:00.258Z,4.45
2022-10-23T16:46:48.782Z,3.72
2022-10-23T16:49:37.165Z,4.28
2022-10-23T16:52:25.931Z,3.92
2022-10-23T16:55:14.348Z,6.13
2022-10-23T16:58:04.052Z,3.75
2022-10-23T17:01:01.785Z,4.13
2022-10-23T17:03:52.637Z,3.22
2022-10-23T17:06:41.180Z,4.00
2022-10-23T17:09:31.306Z,4.75
2022-10-23T17:12:19.637Z,4.15
2022-10-23T17:15:11.176Z,6.20
2022-10-23T17:17:59.510Z,6.35
2022-10-23T17:20:47.839Z,4.28
2022-10-23T17:23:36.312Z,3.78
2022-10-23T17:26:24.658Z,5.78
2022-10-23T17:29:15.107Z,4.47
2022-10-23T17:32:05.372Z,11.23
2022-10-23T17:34:53.702Z,4.65
2022-10-23T17:37:42.047Z,5.55
2022-10-23T17:40:32.961Z,4.47
2022-10-23T17:46:11.196Z,3.08
2022-10-23T17:51:58.147Z,4.65
2022-10-23T17:54:46.479Z,4.97
2022-10-23T17:57:35.283Z,4.00
2022-10-23T18:00:23.748Z,3.95
2022-10-23T18:03:14.529Z,8.23
2022-10-23T18:06:10.081Z,8.63
2022-10-23T18:08:58.971Z,17.52
2022-10-23T18:11:48.705Z,7.97
2022-10-23T18:14:38.280Z,7.88
2022-10-23T18:17:26.608Z,3.83
2022-10-23T18:20:15.849Z,8.38
2022-10-23T18:23:05.584Z,5.85
2022-10-23T18:25:54.056Z,5.07
2022-10-23T18:28:43.091Z,5.65
2022-10-23T18:31:31.636Z,4.10
2022-10-23T18:34:22.037Z,4.68
2022-10-23T18:37:10.502Z,5.65
2022-10-23T18:40:00.271Z,5.38
2022-10-23T18:42:49.882Z,5.68
2022-10-23T18:45:38.395Z,5.93
2022-10-23T18:48:26.831Z,6.72
2022-10-23T18:51:16.906Z,5.03
2022-10-23T18:54:07.554Z,3.55
2022-10-23T18:56:57.671Z,6.63
2022-10-23T18:59:46.047Z,4.90
2022-10-23T19:02:34.579Z,3.28
2022-10-23T19:05:22.977Z,5.38
2022-10-23T19:08:11.419Z,6.57
2022-10-23T19:11:00.412Z,6.40
2022-10-23T19:13:50.146Z,4.93
2022-10-23T19:16:42.164Z,4.97
2022-10-23T19:19:35.745Z,4.97
2022-10-23T19:22:25.276Z,4.47
2022-10-23T19:25:17.917Z,4.45
2022-10-23T19:28:06.446Z,5.32
2022-10-23T19:30:56.313Z,5.00
2022-10-23T19:33:44.617Z,5.45
2022-10-23T19:36:33.214Z,4.05
2022-10-23T19:39:21.936Z,4.43
2022-10-23T19:42:11.710Z,3.88
2022-10-23T19:45:00.038Z,5.40
2022-10-23T19:47:50.024Z,4.90
2022-10-23T19:50:38.332Z,4.57
2022-10-23T19:53:26.750Z,5.72
2022-10-23T19:56:15.343Z,4.20
2022-10-23T19:59:04.039Z,6.40
2022-10-23T20:01:52.488Z,7.72
2022-10-23T20:04:42.398Z,3.67
2022-10-23T20:07:30.836Z,6.95
2022-10-23T20:10:19.500Z,4.72
2022-10-23T20:13:19.240Z,7.28
2022-10-23T20:16:08.777Z,5.88
2022-10-23T20:18:57.954Z,4.95
2022-10-23T20:21:49.261Z,11.10
2022-10-23T20:24:37.601Z,5.43
2022-10-23T20:27:26.109Z,5.90
2022-10-23T20:30:14.599Z,5.97
2022-10-23T20:33:03.024Z,6.00
2022-10-23T20:35:52.823Z,4.75
2022-10-23T20:38:42.571Z,6.45
2022-10-23T20:41:33.294Z,7.15
2022-10-23T20:44:21.806Z,10.75
2022-10-23T20:47:10.115Z,6.15
2022-10-23T20:49:58.475Z,5.68
2022-10-23T20:52:46.964Z,5.75
2022-10-23T20:55:41.150Z,6.18
2022-10-23T20:58:29.481Z,8.13
2022-10-23T21:01:19.216Z,3.95
2022-10-23T21:04:07.752Z,6.75
2022-10-23T21:07:09.606Z,5.22
2022-10-23T21:09:59.414Z,5.97
2022-10-23T21:12:49.102Z,12.27
2022-10-23T21:15:37.413Z,15.27
2022-10-23T21:18:45.121Z,15.98
2022-10-23T21:21:35.981Z,12.85
2022-10-23T21:24:25.104Z,8.85
2022-10-23T21:27:15.132Z,9.02
2022-10-23T21:30:06.327Z,10.87
2022-10-23T21:32:54.649Z,8.05
2022-10-23T21:35:52.313Z,6.85
2022-10-23T21:38:48.602Z,7.80
2022-10-23T21:41:36.953Z,7.00
2022-10-23T21:44:25.286Z,9.90
2022-10-23T21:47:14.963Z,12.05
2022-10-23T21:50:03.328Z,9.02
2022-10-23T21:52:52.855Z,8.38
2022-10-23T21:55:41.183Z,9.80
2022-10-23T21:58:29.540Z,7.70
2022-10-23T22:01:18.019Z,8.77
2022-10-23T22:04:07.830Z,11.10
2022-10-23T22:06:56.218Z,9.55
2022-10-23T22:09:45.488Z,6.47
2022-10-23T22:12:33.812Z,7.65
2022-10-23T22:15:22.179Z,8.63
2022-10-23T22:18:10.519Z,10.70
2022-10-23T22:21:03.175Z,10.50
2022-10-23T22:23:51.994Z,10.43
2022-10-23T22:26:42.202Z,6.88
2022-10-23T22:29:31.137Z,8.68
2022-10-23T22:35:08.531Z,10.48
2022-10-23T22:37:58.219Z,7.40
2022-10-23T22:40:46.807Z,7.30
2022-10-23T22:43:35.761Z,8.02
2022-10-23T22:46:24.591Z,9.40
2022-10-23T22:49:13.152Z,4.95
2022-10-23T22:52:01.476Z,9.30
2022-10-23T22:54:51.153Z,7.15
2022-10-23T22:57:39.488Z,7.85
2022-10-23T23:00:27.788Z,6.70
2022-10-23T23:03:16.267Z,7.10
2022-10-23T23:06:06.310Z,8.15
2022-10-23T23:08:55.184Z,6.50
2022-10-23T23:11:51.326Z,10.95
2022-10-23T23:14:41.544Z,6.63
2022-10-23T23:17:29.873Z,6.22
2022-10-23T23:20:18.410Z,4.70
2022-10-23T23:23:06.790Z,5.55
2022-10-23T23:25:55.201Z,5.57
2022-10-23T23:28:44.915Z,7.45
2022-10-23T23:31:33.252Z,8.45
2022-10-23T23:34:22.209Z,5.40
2022-10-23T23:37:10.566Z,7.35
2022-10-23T23:39:59.481Z,5.80
2022-10-23T23:42:47.838Z,8.38
2022-10-23T23:45:37.527Z,5.15
2022-10-23T23:48:26.441Z,5.55
2022-10-23T23:51:15.229Z,7.90
2022-10-23T23:54:03.638Z,7.53
2022-10-23T23:56:51.958Z,11.20
2022-10-23T23:59:41.151Z,6.53
